sensor_id;sensor_type;location;lat;lon;timestamp;P1;durP1;ratioP1;P2;durP2;ratioP2
53285;SDS011;39171;45.550;12.074;2023-06-10T00:02:14;2.70;;;2.30;;
53285;SDS011;39171;45.550;12.074;2023-06-10T00:08:17;3.03;;;2.38;;
53285;SDS011;39171;45.550;12.074;2023-06-10T00:14:20;3.17;;;2.17;;
53285;SDS011;39171;45.550;12.074;2023-06-10T00:20:22;2.60;;;2.33;;
53285;SDS011;39171;45.550;12.074;2023-06-10T00:26:26;2.42;;;1.95;;
53285;SDS011;39171;45.550;12.074;2023-06-10T00:32:28;3.00;;;2.40;;
53285;SDS011;39171;45.550;12.074;2023-06-10T00:38:30;3.00;;;2.30;;
53285;SDS011;39171;45.550;12.074;2023-06-10T00:44:32;2.75;;;2.13;;
53285;SDS011;39171;45.550;12.074;2023-06-10T00:50:34;3.28;;;2.45;;
53285;SDS011;39171;45.550;12.074;2023-06-10T00:56:35;2.30;;;2.03;;
53285;SDS011;39171;45.550;12.074;2023-06-10T01:02:37;2.60;;;2.05;;
53285;SDS011;39171;45.550;12.074;2023-06-10T01:15:08;2.42;;;2.15;;
53285;SDS011;39171;45.550;12.074;2023-06-10T01:21:19;2.72;;;2.10;;
53285;SDS011;39171;45.550;12.074;2023-06-10T01:27:22;2.33;;;1.75;;
53285;SDS011;39171;45.550;12.074;2023-06-10T01:33:28;2.40;;;2.00;;
53285;SDS011;39171;45.550;12.074;2023-06-10T01:45:36;2.70;;;2.42;;
53285;SDS011;39171;45.550;12.074;2023-06-10T01:51:37;2.80;;;2.17;;
53285;SDS011;39171;45.550;12.074;2023-06-10T01:57:39;2.58;;;2.35;;
53285;SDS011;39171;45.550;12.074;2023-06-10T02:03:40;2.40;;;2.10;;
53285;SDS011;39171;45.550;12.074;2023-06-10T02:09:43;3.13;;;2.33;;
53285;SDS011;39171;45.550;12.074;2023-06-10T02:15:45;2.33;;;2.03;;
53285;SDS011;39171;45.550;12.074;2023-06-10T02:21:46;2.65;;;2.20;;
53285;SDS011;39171;45.550;12.074;2023-06-10T02:27:47;2.85;;;2.17;;
53285;SDS011;39171;45.550;12.074;2023-06-10T02:33:49;2.75;;;2.20;;
53285;SDS011;39171;45.550;12.074;2023-06-10T02:39:51;2.53;;;2.00;;
53285;SDS011;39171;45.550;12.074;2023-06-10T02:45:53;2.38;;;1.90;;
53285;SDS011;39171;45.550;12.074;2023-06-10T02:51:54;2.63;;;2.22;;
53285;SDS011;39171;45.550;12.074;2023-06-10T02:57:58;2.40;;;2.05;;
53285;SDS011;39171;45.550;12.074;2023-06-10T03:04:00;2.97;;;2.53;;
53285;SDS011;39171;45.550;12.074;2023-06-10T03:10:02;2.58;;;2.20;;
53285;SDS011;39171;45.550;12.074;2023-06-10T03:16:04;2.67;;;2.47;;
53285;SDS011;39171;45.550;12.074;2023-06-10T03:22:09;3.63;;;2.30;;
53285;SDS011;39171;45.550;12.074;2023-06-10T03:28:16;2.63;;;2.22;;
53285;SDS011;39171;45.550;12.074;2023-06-10T03:34:19;2.28;;;1.85;;
53285;SDS011;39171;45.550;12.074;2023-06-10T03:40:20;2.80;;;2.20;;
53285;SDS011;39171;45.550;12.074;2023-06-10T03:46:22;2.30;;;1.98;;
53285;SDS011;39171;45.550;12.074;2023-06-10T03:52:24;3.30;;;2.28;;
53285;SDS011;39171;45.550;12.074;2023-06-10T03:58:27;2.83;;;2.50;;
53285;SDS011;39171;45.550;12.074;2023-06-10T04:04:28;2.78;;;2.45;;
53285;SDS011;39171;45.550;12.074;2023-06-10T04:10:30;2.65;;;2.15;;
53285;SDS011;39171;45.550;12.074;2023-06-10T04:16:32;2.60;;;2.25;;
53285;SDS011;39171;45.550;12.074;2023-06-10T04:22:35;2.60;;;2.40;;
53285;SDS011;39171;45.550;12.074;2023-06-10T04:28:37;3.33;;;2.78;;
53285;SDS011;39171;45.550;12.074;2023-06-10T04:34:39;3.75;;;3.00;;
53285;SDS011;39171;45.550;12.074;2023-06-10T04:40:41;3.60;;;2.95;;
53285;SDS011;39171;45.550;12.074;2023-06-10T04:46:45;3.08;;;2.75;;
53285;SDS011;39171;45.550;12.074;2023-06-10T04:52:49;3.33;;;2.70;;
53285;SDS011;39171;45.550;12.074;2023-06-10T04:58:51;2.65;;;2.40;;
53285;SDS011;39171;45.550;12.074;2023-06-10T05:04:52;3.22;;;2.40;;
53285;SDS011;39171;45.550;12.074;2023-06-10T05:10:55;2.53;;;1.88;;
53285;SDS011;39171;45.550;12.074;2023-06-10T05:16:57;2.15;;;1.95;;
53285;SDS011;39171;45.550;12.074;2023-06-10T05:22:59;1.88;;;1.50;;
53285;SDS011;39171;45.550;12.074;2023-06-10T05:29:00;2.10;;;1.75;;
53285;SDS011;39171;45.550;12.074;2023-06-10T05:35:01;2.92;;;2.00;;
53285;SDS011;39171;45.550;12.074;2023-06-10T05:41:04;2.80;;;1.83;;
53285;SDS011;39171;45.550;12.074;2023-06-10T05:47:06;2.22;;;2.03;;
53285;SDS011;39171;45.550;12.074;2023-06-10T05:53:07;3.03;;;2.50;;
53285;SDS011;39171;45.550;12.074;2023-06-10T05:59:15;2.80;;;2.50;;
53285;SDS011;39171;45.550;12.074;2023-06-10T06:05:17;2.78;;;2.30;;
53285;SDS011;39171;45.550;12.074;2023-06-10T06:11:18;3.00;;;2.70;;
53285;SDS011;39171;45.550;12.074;2023-06-10T06:17:19;3.00;;;2.65;;
53285;SDS011;39171;45.550;12.074;2023-06-10T06:23:21;3.00;;;2.70;;
53285;SDS011;39171;45.550;12.074;2023-06-10T06:29:22;2.58;;;2.20;;
53285;SDS011;39171;45.550;12.074;2023-06-10T06:35:24;2.42;;;2.00;;
53285;SDS011;39171;45.550;12.074;2023-06-10T06:41:28;3.30;;;2.35;;
53285;SDS011;39171;45.550;12.074;2023-06-10T06:47:29;2.72;;;2.38;;
53285;SDS011;39171;45.550;12.074;2023-06-10T06:53:31;2.30;;;2.03;;
53285;SDS011;39171;45.550;12.074;2023-06-10T06:59:32;2.60;;;1.85;;
53285;SDS011;39171;45.550;12.074;2023-06-10T07:05:34;2.22;;;1.88;;
53285;SDS011;39171;45.550;12.074;2023-06-10T07:11:35;2.35;;;1.73;;
53285;SDS011;39171;45.550;12.074;2023-06-10T07:17:37;1.98;;;1.67;;
53285;SDS011;39171;45.550;12.074;2023-06-10T07:23:41;2.20;;;1.92;;
53285;SDS011;39171;45.550;12.074;2023-06-10T07:29:43;2.33;;;1.88;;
53285;SDS011;39171;45.550;12.074;2023-06-10T07:35:49;2.30;;;2.00;;
53285;SDS011;39171;45.550;12.074;2023-06-10T07:41:50;1.85;;;1.63;;
53285;SDS011;39171;45.550;12.074;2023-06-10T07:47:54;2.00;;;1.55;;
53285;SDS011;39171;45.550;12.074;2023-06-10T07:53:56;1.77;;;1.48;;
53285;SDS011;39171;45.550;12.074;2023-06-10T07:59:58;1.65;;;1.40;;
53285;SDS011;39171;45.550;12.074;2023-06-10T08:06:01;1.60;;;1.50;;
53285;SDS011;39171;45.550;12.074;2023-06-10T08:12:02;1.65;;;1.35;;
53285;SDS011;39171;45.550;12.074;2023-06-10T08:18:05;1.70;;;1.13;;
53285;SDS011;39171;45.550;12.074;2023-06-10T08:24:07;1.38;;;1.10;;
53285;SDS011;39171;45.550;12.074;2023-06-10T08:30:08;1.08;;;0.90;;
53285;SDS011;39171;45.550;12.074;2023-06-10T08:36:11;1.20;;;1.00;;
53285;SDS011;39171;45.550;12.074;2023-06-10T08:42:31;1.80;;;1.20;;
53285;SDS011;39171;45.550;12.074;2023-06-10T08:48:39;3.45;;;2.63;;
53285;SDS011;39171;45.550;12.074;2023-06-10T09:01:20;1.02;;;0.90;;
53285;SDS011;39171;45.550;12.074;2023-06-10T09:07:22;2.58;;;1.98;;
53285;SDS011;39171;45.550;12.074;2023-06-10T09:13:26;4.18;;;3.25;;
53285;SDS011;39171;45.550;12.074;2023-06-10T09:19:28;2.72;;;2.10;;
53285;SDS011;39171;45.550;12.074;2023-06-10T09:25:36;1.92;;;1.67;;
53285;SDS011;39171;45.550;12.074;2023-06-10T09:31:42;3.92;;;3.08;;
53285;SDS011;39171;45.550;12.074;2023-06-10T09:37:54;2.30;;;1.90;;
53285;SDS011;39171;45.550;12.074;2023-06-10T09:43:56;5.00;;;3.95;;
53285;SDS011;39171;45.550;12.074;2023-06-10T09:49:58;4.75;;;4.25;;
53285;SDS011;39171;45.550;12.074;2023-06-10T09:55:59;4.80;;;3.45;;
53285;SDS011;39171;45.550;12.074;2023-06-10T10:02:01;6.57;;;5.78;;
53285;SDS011;39171;45.550;12.074;2023-06-10T10:08:08;8.75;;;7.13;;
53285;SDS011;39171;45.550;12.074;2023-06-10T10:14:10;5.95;;;4.95;;
53285;SDS011;39171;45.550;12.074;2023-06-10T10:20:14;8.23;;;7.25;;
53285;SDS011;39171;45.550;12.074;2023-06-10T10:26:26;9.65;;;7.97;;
53285;SDS011;39171;45.550;12.074;2023-06-10T10:32:43;8.85;;;7.47;;
53285;SDS011;39171;45.550;12.074;2023-06-10T10:38:56;7.65;;;6.82;;
53285;SDS011;39171;45.550;12.074;2023-06-10T10:44:59;12.85;;;10.75;;
53285;SDS011;39171;45.550;12.074;2023-06-10T10:51:01;10.20;;;8.85;;
53285;SDS011;39171;45.550;12.074;2023-06-10T11:03:15;8.65;;;7.75;;
53285;SDS011;39171;45.550;12.074;2023-06-10T11:09:26;10.73;;;9.55;;
53285;SDS011;39171;45.550;12.074;2023-06-10T11:15:31;7.55;;;6.70;;
53285;SDS011;39171;45.550;12.074;2023-06-10T11:21:36;7.10;;;6.40;;
53285;SDS011;39171;45.550;12.074;2023-06-10T11:28:18;6.43;;;5.82;;
53285;SDS011;39171;45.550;12.074;2023-06-10T11:34:23;7.88;;;7.10;;
53285;SDS011;39171;45.550;12.074;2023-06-10T11:40:26;7.22;;;6.53;;
53285;SDS011;39171;45.550;12.074;2023-06-10T11:46:31;5.55;;;4.95;;
53285;SDS011;39171;45.550;12.074;2023-06-10T11:52:33;5.70;;;5.15;;
53285;SDS011;39171;45.550;12.074;2023-06-10T11:58:40;5.75;;;5.20;;
53285;SDS011;39171;45.550;12.074;2023-06-10T12:04:45;6.53;;;5.47;;
53285;SDS011;39171;45.550;12.074;2023-06-10T12:10:52;5.40;;;4.90;;
53285;SDS011;39171;45.550;12.074;2023-06-10T12:16:54;3.88;;;3.47;;
53285;SDS011;39171;45.550;12.074;2023-06-10T12:22:57;3.60;;;3.30;;
53285;SDS011;39171;45.550;12.074;2023-06-10T12:28:58;3.95;;;3.58;;
53285;SDS011;39171;45.550;12.074;2023-06-10T12:35:03;6.07;;;5.45;;
53285;SDS011;39171;45.550;12.074;2023-06-10T12:41:05;4.47;;;4.05;;
53285;SDS011;39171;45.550;12.074;2023-06-10T12:47:07;3.88;;;3.33;;
53285;SDS011;39171;45.550;12.074;2023-06-10T12:53:11;3.65;;;3.28;;
53285;SDS011;39171;45.550;12.074;2023-06-10T12:59:13;3.92;;;3.40;;
53285;SDS011;39171;45.550;12.074;2023-06-10T13:05:15;3.30;;;2.90;;
53285;SDS011;39171;45.550;12.074;2023-06-10T13:11:18;3.60;;;3.10;;
53285;SDS011;39171;45.550;12.074;2023-06-10T13:17:19;3.97;;;3.50;;
53285;SDS011;39171;45.550;12.074;2023-06-10T13:23:21;3.83;;;3.38;;
53285;SDS011;39171;45.550;12.074;2023-06-10T13:29:25;5.78;;;4.55;;
53285;SDS011;39171;45.550;12.074;2023-06-10T13:35:26;5.95;;;4.47;;
53285;SDS011;39171;45.550;12.074;2023-06-10T13:41:28;4.88;;;4.38;;
53285;SDS011;39171;45.550;12.074;2023-06-10T13:47:29;5.30;;;4.63;;
53285;SDS011;39171;45.550;12.074;2023-06-10T13:53:31;6.13;;;5.10;;
53285;SDS011;39171;45.550;12.074;2023-06-10T13:59:34;5.13;;;4.25;;
53285;SDS011;39171;45.550;12.074;2023-06-10T14:05:45;5.15;;;3.53;;
53285;SDS011;39171;45.550;12.074;2023-06-10T14:11:47;5.25;;;4.70;;
53285;SDS011;39171;45.550;12.074;2023-06-10T14:17:48;4.18;;;3.60;;
53285;SDS011;39171;45.550;12.074;2023-06-10T14:23:49;4.65;;;3.67;;
53285;SDS011;39171;45.550;12.074;2023-06-10T14:29:52;5.07;;;3.35;;
53285;SDS011;39171;45.550;12.074;2023-06-10T14:35:54;5.00;;;3.20;;
53285;SDS011;39171;45.550;12.074;2023-06-10T14:41:55;6.25;;;3.58;;
53285;SDS011;39171;45.550;12.074;2023-06-10T14:47:57;6.65;;;4.68;;
53285;SDS011;39171;45.550;12.074;2023-06-10T14:53:58;6.93;;;4.30;;
53285;SDS011;39171;45.550;12.074;2023-06-10T14:59:59;5.90;;;3.92;;
53285;SDS011;39171;45.550;12.074;2023-06-10T15:06:01;5.32;;;3.75;;
53285;SDS011;39171;45.550;12.074;2023-06-10T15:12:02;5.40;;;4.55;;
53285;SDS011;39171;45.550;12.074;2023-06-10T15:18:04;5.32;;;3.92;;
53285;SDS011;39171;45.550;12.074;2023-06-10T15:24:09;4.43;;;3.70;;
53285;SDS011;39171;45.550;12.074;2023-06-10T15:30:11;4.70;;;3.53;;
53285;SDS011;39171;45.550;12.074;2023-06-10T15:36:12;3.75;;;3.20;;
53285;SDS011;39171;45.550;12.074;2023-06-10T15:42:14;2.83;;;2.22;;
53285;SDS011;39171;45.550;12.074;2023-06-10T15:48:15;3.20;;;2.63;;
53285;SDS011;39171;45.550;12.074;2023-06-10T15:54:17;3.28;;;2.47;;
53285;SDS011;39171;45.550;12.074;2023-06-10T16:00:19;3.08;;;2.22;;
53285;SDS011;39171;45.550;12.074;2023-06-10T16:06:20;3.40;;;2.45;;
53285;SDS011;39171;45.550;12.074;2023-06-10T16:12:22;4.68;;;3.10;;
53285;SDS011;39171;45.550;12.074;2023-06-10T16:18:23;4.10;;;2.50;;
53285;SDS011;39171;45.550;12.074;2023-06-10T16:24:27;3.97;;;2.40;;
53285;SDS011;39171;45.550;12.074;2023-06-10T16:30:28;3.10;;;2.17;;
53285;SDS011;39171;45.550;12.074;2023-06-10T16:36:30;4.22;;;2.55;;
53285;SDS011;39171;45.550;12.074;2023-06-10T16:42:31;3.47;;;2.42;;
53285;SDS011;39171;45.550;12.074;2023-06-10T16:48:32;4.45;;;2.63;;
53285;SDS011;39171;45.550;12.074;2023-06-10T16:54:34;3.40;;;2.35;;
53285;SDS011;39171;45.550;12.074;2023-06-10T17:00:35;4.18;;;2.03;;
53285;SDS011;39171;45.550;12.074;2023-06-10T17:06:37;4.00;;;2.38;;
53285;SDS011;39171;45.550;12.074;2023-06-10T17:12:42;2.97;;;1.70;;
53285;SDS011;39171;45.550;12.074;2023-06-10T17:18:43;2.40;;;1.67;;
53285;SDS011;39171;45.550;12.074;2023-06-10T17:24:50;1.90;;;1.30;;
53285;SDS011;39171;45.550;12.074;2023-06-10T17:30:51;2.10;;;1.30;;
53285;SDS011;39171;45.550;12.074;2023-06-10T17:36:53;1.63;;;1.15;;
53285;SDS011;39171;45.550;12.074;2023-06-10T17:42:54;1.45;;;0.95;;
53285;SDS011;39171;45.550;12.074;2023-06-10T17:48:55;1.92;;;1.20;;
53285;SDS011;39171;45.550;12.074;2023-06-10T17:54:57;2.08;;;1.25;;
53285;SDS011;39171;45.550;12.074;2023-06-10T18:01:06;2.00;;;1.40;;
53285;SDS011;39171;45.550;12.074;2023-06-10T18:07:08;2.13;;;1.40;;
53285;SDS011;39171;45.550;12.074;2023-06-10T18:13:09;1.35;;;1.08;;
53285;SDS011;39171;45.550;12.074;2023-06-10T18:19:11;1.70;;;1.20;;
53285;SDS011;39171;45.550;12.074;2023-06-10T18:25:13;2.35;;;1.40;;
53285;SDS011;39171;45.550;12.074;2023-06-10T18:31:16;2.08;;;1.65;;
53285;SDS011;39171;45.550;12.074;2023-06-10T18:37:18;1.55;;;1.00;;
53285;SDS011;39171;45.550;12.074;2023-06-10T18:43:23;2.10;;;1.40;;
53285;SDS011;39171;45.550;12.074;2023-06-10T18:49:24;2.65;;;1.73;;
53285;SDS011;39171;45.550;12.074;2023-06-10T18:55:26;2.65;;;1.75;;
53285;SDS011;39171;45.550;12.074;2023-06-10T19:01:27;2.13;;;1.88;;
53285;SDS011;39171;45.550;12.074;2023-06-10T19:07:29;3.17;;;2.10;;
53285;SDS011;39171;45.550;12.074;2023-06-10T19:13:30;3.35;;;2.55;;
53285;SDS011;39171;45.550;12.074;2023-06-10T19:19:37;3.45;;;2.60;;
53285;SDS011;39171;45.550;12.074;2023-06-10T19:25:39;2.45;;;2.25;;
53285;SDS011;39171;45.550;12.074;2023-06-10T19:31:40;2.40;;;2.20;;
53285;SDS011;39171;45.550;12.074;2023-06-10T19:37:42;2.42;;;2.20;;
53285;SDS011;39171;45.550;12.074;2023-06-10T19:43:43;2.83;;;2.20;;
53285;SDS011;39171;45.550;12.074;2023-06-10T19:49:45;3.10;;;2.70;;
53285;SDS011;39171;45.550;12.074;2023-06-10T19:55:46;3.00;;;2.28;;
53285;SDS011;39171;45.550;12.074;2023-06-10T20:01:48;2.78;;;2.40;;
53285;SDS011;39171;45.550;12.074;2023-06-10T20:07:49;3.38;;;2.50;;
53285;SDS011;39171;45.550;12.074;2023-06-10T20:13:51;2.55;;;2.13;;
53285;SDS011;39171;45.550;12.074;2023-06-10T20:19:55;3.08;;;2.55;;
53285;SDS011;39171;45.550;12.074;2023-06-10T20:25:57;2.67;;;2.42;;
53285;SDS011;39171;45.550;12.074;2023-06-10T20:31:58;3.03;;;2.63;;
53285;SDS011;39171;45.550;12.074;2023-06-10T20:38:00;2.58;;;2.38;;
53285;SDS011;39171;45.550;12.074;2023-06-10T20:44:01;3.28;;;2.55;;
53285;SDS011;39171;45.550;12.074;2023-06-10T20:50:02;2.60;;;2.20;;
53285;SDS011;39171;45.550;12.074;2023-06-10T20:56:04;2.35;;;1.90;;
53285;SDS011;39171;45.550;12.074;2023-06-10T21:02:05;3.13;;;2.83;;
53285;SDS011;39171;45.550;12.074;2023-06-10T21:08:07;3.35;;;2.47;;
53285;SDS011;39171;45.550;12.074;2023-06-10T21:14:09;2.97;;;2.33;;
53285;SDS011;39171;45.550;12.074;2023-06-10T21:20:11;2.72;;;2.28;;
53285;SDS011;39171;45.550;12.074;2023-06-10T21:26:17;2.60;;;2.28;;
53285;SDS011;39171;45.550;12.074;2023-06-10T21:32:19;2.80;;;2.30;;
53285;SDS011;39171;45.550;12.074;2023-06-10T21:38:20;3.10;;;2.50;;
53285;SDS011;39171;45.550;12.074;2023-06-10T21:44:24;3.25;;;2.42;;
53285;SDS011;39171;45.550;12.074;2023-06-10T21:50:26;3.10;;;2.60;;
53285;SDS011;39171;45.550;12.074;2023-06-10T21:56:27;3.85;;;3.05;;
53285;SDS011;39171;45.550;12.074;2023-06-10T22:02:32;3.00;;;2.70;;
53285;SDS011;39171;45.550;12.074;2023-06-10T22:08:33;4.78;;;3.03;;
53285;SDS011;39171;45.550;12.074;2023-06-10T22:14:36;3.80;;;3.00;;
53285;SDS011;39171;45.550;12.074;2023-06-10T22:20:37;2.97;;;2.42;;
53285;SDS011;39171;45.550;12.074;2023-06-10T22:26:39;3.45;;;3.13;;
53285;SDS011;39171;45.550;12.074;2023-06-10T22:32:40;3.13;;;2.45;;
53285;SDS011;39171;45.550;12.074;2023-06-10T22:38:41;3.58;;;2.80;;
53285;SDS011;39171;45.550;12.074;2023-06-10T22:44:43;3.42;;;2.90;;
53285;SDS011;39171;45.550;12.074;2023-06-10T22:50:47;3.22;;;2.88;;
53285;SDS011;39171;45.550;12.074;2023-06-10T22:56:48;3.95;;;3.33;;
53285;SDS011;39171;45.550;12.074;2023-06-10T23:02:50;3.28;;;2.97;;
53285;SDS011;39171;45.550;12.074;2023-06-10T23:08:51;3.92;;;3.13;;
53285;SDS011;39171;45.550;12.074;2023-06-10T23:14:54;3.97;;;2.85;;
53285;SDS011;39171;45.550;12.074;2023-06-10T23:20:55;3.80;;;2.97;;
53285;SDS011;39171;45.550;12.074;2023-06-10T23:26:59;3.05;;;2.75;;
53285;SDS011;39171;45.550;12.074;2023-06-10T23:33:01;3.20;;;2.70;;
53285;SDS011;39171;45.550;12.074;2023-06-10T23:39:03;3.63;;;3.05;;
53285;SDS011;39171;45.550;12.074;2023-06-10T23:45:04;4.15;;;3.30;;
53285;SDS011;39171;45.550;12.074;2023-06-10T23:51:06;3.58;;;2.88;;
53285;SDS011;39171;45.550;12.074;2023-06-10T23:57:07;3.60;;;2.90;;
